Bellatrix — XUAB4 — position and weather

sailwx.info

Track history (hours):
 
Tides and Currents Weather Stations Pressure Air Temp Water Temp Dewpoint Dewpoint Depression Visibility Wind Speed Wind Dir Waves Ship Positions

Bellatrix

Last reported at 2015-Feb-28 03:29 UTC. Time now 2015-Mar-04 20:20 UTC.
Position N 46°32' E 032°03'.

Length 114 m; draft 2.3 m.

Type: Cargo ship. MMSI: 515288000.

Date/timePositionNaut miles runAvg speedWind from/ knotsBaromVisibWave heightAir tempDewpointWater temp
2015-Feb-28 03:29N 46°32' E 032°03'8 8.2
2015-Feb-28 02:33N 46°35' E 031°52'8 8.0
2015-Feb-28 01:31N 46°35' E 031°40'9 7.6
2015-Feb-28 00:18N 46°35' E 031°27'8 7.9
2015-Feb-27 23:22N 46°35' E 031°16'  
2015-Feb-25 18:27N 40°58' E 028°60'3 3.4
2015-Feb-25 17:33N 40°57' E 028°56'2 0.4
2015-Feb-25 12:27N 40°58' E 028°54'0 0.0
2015-Feb-25 11:23N 40°58' E 028°54'0 0.0
2015-Feb-25 07:23N 40°58' E 028°54'0 0.0
2015-Feb-25 06:17N 40°58' E 028°54'2 0.3
2015-Feb-25 00:32N 40°57' E 028°56'5 4.6
2015-Feb-24 23:31N 40°53' E 029°00'7 6.7
2015-Feb-24 22:31N 40°49' E 029°06'7 7.1
2015-Feb-24 21:33N 40°46' E 029°15'6 6.0
2015-Feb-24 20:29N 40°45' E 029°23'6 6.0
2015-Feb-24 19:25N 40°45' E 029°32'1 0.0
2015-Feb-23 10:14N 40°46' E 029°30'1 0.7
2015-Feb-23 08:32N 40°46' E 029°28'0 0.1
2015-Feb-23 07:30N 40°46' E 029°28'  
2015-Feb-20 08:15N 40°57' E 028°55'6 7.5
2015-Feb-20 07:28N 41°02' E 029°00'  
Track history (hours):
 
Tides and Currents Weather Stations Pressure Air Temp Water Temp Dewpoint Dewpoint Depression Visibility Wind Speed Wind Dir Waves Ship Positions

Bellatrix

Last reported at 2015-Feb-28 03:29 UTC. Time now 2015-Mar-04 20:20 UTC.
Position N 46°32' E 032°03'.

Length 114 m; draft 2.3 m.

Type: Cargo ship. MMSI: 515288000.

Date/timePositionNaut miles runAvg speedWind from/ knotsBaromVisibWave heightAir tempDewpointWater temp
2015-Feb-28 03:29N 46°32' E 032°03'8 8.2
2015-Feb-28 02:33N 46°35' E 031°52'8 8.0
2015-Feb-28 01:31N 46°35' E 031°40'9 7.6
2015-Feb-28 00:18N 46°35' E 031°27'8 7.9
2015-Feb-27 23:22N 46°35' E 031°16'  
2015-Feb-25 18:27N 40°58' E 028°60'3 3.4
2015-Feb-25 17:33N 40°57' E 028°56'2 0.4
2015-Feb-25 12:27N 40°58' E 028°54'0 0.0
2015-Feb-25 11:23N 40°58' E 028°54'0 0.0
2015-Feb-25 07:23N 40°58' E 028°54'0 0.0
2015-Feb-25 06:17N 40°58' E 028°54'2 0.3
2015-Feb-25 00:32N 40°57' E 028°56'5 4.6
2015-Feb-24 23:31N 40°53' E 029°00'7 6.7
2015-Feb-24 22:31N 40°49' E 029°06'7 7.1
2015-Feb-24 21:33N 40°46' E 029°15'6 6.0
2015-Feb-24 20:29N 40°45' E 029°23'6 6.0
2015-Feb-24 19:25N 40°45' E 029°32'1 0.0
2015-Feb-23 10:14N 40°46' E 029°30'1 0.7
2015-Feb-23 08:32N 40°46' E 029°28'0 0.1
2015-Feb-23 07:30N 40°46' E 029°28'  
2015-Feb-20 08:15N 40°57' E 028°55'6 7.5
2015-Feb-20 07:28N 41°02' E 029°00'  

Dump ship's entire track history